sensor_id;sensor_type;location;lat;lon;timestamp;temperature;humidity
18456;DHT22;9357;49.900;8.208;2023-08-01T00:01:03;18.80;99.90
18456;DHT22;9357;49.900;8.208;2023-08-01T00:02:37;18.80;99.90
18456;DHT22;9357;49.900;8.208;2023-08-01T00:04:09;18.80;99.90
18456;DHT22;9357;49.900;8.208;2023-08-01T00:05:42;18.80;99.90
18456;DHT22;9357;49.900;8.208;2023-08-01T00:07:16;18.70;99.90
18456;DHT22;9357;49.900;8.208;2023-08-01T00:08:49;18.70;99.90
18456;DHT22;9357;49.900;8.208;2023-08-01T00:10:23;18.80;99.90
18456;DHT22;9357;49.900;8.208;2023-08-01T00:11:54;18.70;99.90
18456;DHT22;9357;49.900;8.208;2023-08-01T00:13:27;18.70;99.90
18456;DHT22;9357;49.900;8.208;2023-08-01T00:14:59;18.70;99.90
18456;DHT22;9357;49.900;8.208;2023-08-01T00:16:32;18.70;99.90
18456;DHT22;9357;49.900;8.208;2023-08-01T00:18:04;18.70;99.90
18456;DHT22;9357;49.900;8.208;2023-08-01T00:19:37;18.70;99.90
18456;DHT22;9357;49.900;8.208;2023-08-01T00:21:09;18.70;99.90
18456;DHT22;9357;49.900;8.208;2023-08-01T00:22:42;18.60;99.90
18456;DHT22;9357;49.900;8.208;2023-08-01T00:24:14;18.60;99.90
18456;DHT22;9357;49.900;8.208;2023-08-01T00:25:48;18.60;99.90
18456;DHT22;9357;49.900;8.208;2023-08-01T00:27:23;18.70;99.90
18456;DHT22;9357;49.900;8.208;2023-08-01T00:28:56;18.60;99.90
18456;DHT22;9357;49.900;8.208;2023-08-01T00:30:28;18.60;99.90
18456;DHT22;9357;49.900;8.208;2023-08-01T00:32:00;18.60;99.90
18456;DHT22;9357;49.900;8.208;2023-08-01T00:33:32;18.60;99.90
18456;DHT22;9357;49.900;8.208;2023-08-01T00:35:05;18.60;99.90
18456;DHT22;9357;49.900;8.208;2023-08-01T00:36:38;18.60;99.90
18456;DHT22;9357;49.900;8.208;2023-08-01T00:38:10;18.60;99.90
18456;DHT22;9357;49.900;8.208;2023-08-01T00:39:43;18.60;99.90
18456;DHT22;9357;49.900;8.208;2023-08-01T00:41:16;18.60;99.90
18456;DHT22;9357;49.900;8.208;2023-08-01T00:42:49;18.60;99.90
18456;DHT22;9357;49.900;8.208;2023-08-01T00:44:27;18.60;99.90
18456;DHT22;9357;49.900;8.208;2023-08-01T00:46:00;18.60;99.90
18456;DHT22;9357;49.900;8.208;2023-08-01T00:47:33;18.60;99.90
18456;DHT22;9357;49.900;8.208;2023-08-01T00:49:06;18.60;99.90
18456;DHT22;9357;49.900;8.208;2023-08-01T00:50:39;18.60;99.90
18456;DHT22;9357;49.900;8.208;2023-08-01T00:52:13;18.60;99.90
18456;DHT22;9357;49.900;8.208;2023-08-01T00:53:45;18.60;99.90
18456;DHT22;9357;49.900;8.208;2023-08-01T00:55:18;18.60;99.90
18456;DHT22;9357;49.900;8.208;2023-08-01T00:56:51;18.60;99.90
18456;DHT22;9357;49.900;8.208;2023-08-01T00:58:24;18.60;99.90
18456;DHT22;9357;49.900;8.208;2023-08-01T00:59:56;18.60;99.90
18456;DHT22;9357;49.900;8.208;2023-08-01T01:01:29;18.70;99.90
18456;DHT22;9357;49.900;8.208;2023-08-01T01:03:01;18.70;99.90
18456;DHT22;9357;49.900;8.208;2023-08-01T01:04:34;18.70;99.90
18456;DHT22;9357;49.900;8.208;2023-08-01T01:06:11;18.60;99.90
18456;DHT22;9357;49.900;8.208;2023-08-01T01:07:47;18.60;99.90
18456;DHT22;9357;49.900;8.208;2023-08-01T01:09:21;18.60;99.90
18456;DHT22;9357;49.900;8.208;2023-08-01T01:10:53;18.60;99.90
18456;DHT22;9357;49.900;8.208;2023-08-01T01:12:27;18.60;99.90
18456;DHT22;9357;49.900;8.208;2023-08-01T01:13:59;18.60;99.90
18456;DHT22;9357;49.900;8.208;2023-08-01T01:15:31;18.60;99.90
18456;DHT22;9357;49.900;8.208;2023-08-01T01:17:05;18.60;99.90
18456;DHT22;9357;49.900;8.208;2023-08-01T01:18:37;18.50;99.90
18456;DHT22;9357;49.900;8.208;2023-08-01T01:20:10;18.60;99.90
18456;DHT22;9357;49.900;8.208;2023-08-01T01:21:44;18.60;99.90
18456;DHT22;9357;49.900;8.208;2023-08-01T01:23:18;18.60;99.90
18456;DHT22;9357;49.900;8.208;2023-08-01T01:24:53;18.60;99.90
18456;DHT22;9357;49.900;8.208;2023-08-01T01:26:27;18.60;99.90
18456;DHT22;9357;49.900;8.208;2023-08-01T01:28:02;18.50;99.90
18456;DHT22;9357;49.900;8.208;2023-08-01T01:29:35;18.60;99.90
18456;DHT22;9357;49.900;8.208;2023-08-01T01:31:09;18.60;99.90
18456;DHT22;9357;49.900;8.208;2023-08-01T01:32:42;18.60;99.90
18456;DHT22;9357;49.900;8.208;2023-08-01T01:34:14;18.60;99.90
18456;DHT22;9357;49.900;8.208;2023-08-01T01:35:47;18.60;99.90
18456;DHT22;9357;49.900;8.208;2023-08-01T01:37:21;18.60;99.90
18456;DHT22;9357;49.900;8.208;2023-08-01T01:38:53;18.60;99.90
18456;DHT22;9357;49.900;8.208;2023-08-01T01:40:25;18.60;99.90
18456;DHT22;9357;49.900;8.208;2023-08-01T01:41:57;18.60;99.90
18456;DHT22;9357;49.900;8.208;2023-08-01T01:43:30;18.60;99.90
18456;DHT22;9357;49.900;8.208;2023-08-01T01:45:02;18.60;99.90
18456;DHT22;9357;49.900;8.208;2023-08-01T01:46:35;18.60;99.90
18456;DHT22;9357;49.900;8.208;2023-08-01T01:48:07;18.60;99.90
18456;DHT22;9357;49.900;8.208;2023-08-01T01:49:40;18.60;99.90
18456;DHT22;9357;49.900;8.208;2023-08-01T01:51:12;18.70;99.90
18456;DHT22;9357;49.900;8.208;2023-08-01T01:52:47;18.70;99.90
18456;DHT22;9357;49.900;8.208;2023-08-01T01:54:18;18.60;99.90
18456;DHT22;9357;49.900;8.208;2023-08-01T01:55:51;18.60;99.90
18456;DHT22;9357;49.900;8.208;2023-08-01T01:57:23;18.60;99.90
18456;DHT22;9357;49.900;8.208;2023-08-01T01:58:56;18.50;99.90
18456;DHT22;9357;49.900;8.208;2023-08-01T02:00:27;18.50;99.90
18456;DHT22;9357;49.900;8.208;2023-08-01T02:02:00;18.50;99.90
18456;DHT22;9357;49.900;8.208;2023-08-01T02:03:32;18.50;99.90
18456;DHT22;9357;49.900;8.208;2023-08-01T02:05:05;18.50;99.90
18456;DHT22;9357;49.900;8.208;2023-08-01T02:06:37;18.50;99.90
18456;DHT22;9357;49.900;8.208;2023-08-01T02:08:11;18.50;99.90
18456;DHT22;9357;49.900;8.208;2023-08-01T02:09:43;18.50;99.90
18456;DHT22;9357;49.900;8.208;2023-08-01T02:11:16;18.50;99.90
18456;DHT22;9357;49.900;8.208;2023-08-01T02:12:48;18.50;99.90
18456;DHT22;9357;49.900;8.208;2023-08-01T02:14:20;18.50;99.90
18456;DHT22;9357;49.900;8.208;2023-08-01T02:15:52;18.50;99.90
18456;DHT22;9357;49.900;8.208;2023-08-01T02:17:25;18.50;99.90
18456;DHT22;9357;49.900;8.208;2023-08-01T02:18:57;18.50;99.90
18456;DHT22;9357;49.900;8.208;2023-08-01T02:20:30;18.50;99.90
18456;DHT22;9357;49.900;8.208;2023-08-01T02:22:01;18.50;99.90
18456;DHT22;9357;49.900;8.208;2023-08-01T02:23:35;18.60;99.90
18456;DHT22;9357;49.900;8.208;2023-08-01T02:25:09;18.60;99.90
18456;DHT22;9357;49.900;8.208;2023-08-01T02:26:41;18.60;99.90
18456;DHT22;9357;49.900;8.208;2023-08-01T02:28:13;18.70;99.90
18456;DHT22;9357;49.900;8.208;2023-08-01T02:29:45;18.70;99.90
18456;DHT22;9357;49.900;8.208;2023-08-01T02:31:19;18.70;99.90
18456;DHT22;9357;49.900;8.208;2023-08-01T02:32:52;18.70;99.90
18456;DHT22;9357;49.900;8.208;2023-08-01T02:34:23;18.70;99.90
18456;DHT22;9357;49.900;8.208;2023-08-01T02:35:56;18.60;99.90
18456;DHT22;9357;49.900;8.208;2023-08-01T02:37:28;18.60;99.90
18456;DHT22;9357;49.900;8.208;2023-08-01T02:39:02;18.60;99.90
18456;DHT22;9357;49.900;8.208;2023-08-01T02:40:34;18.60;99.90
18456;DHT22;9357;49.900;8.208;2023-08-01T02:42:07;18.60;99.90
18456;DHT22;9357;49.900;8.208;2023-08-01T02:43:38;18.60;99.90
18456;DHT22;9357;49.900;8.208;2023-08-01T02:45:13;18.60;99.90
18456;DHT22;9357;49.900;8.208;2023-08-01T02:46:44;18.60;99.90
18456;DHT22;9357;49.900;8.208;2023-08-01T02:48:17;18.60;99.90
18456;DHT22;9357;49.900;8.208;2023-08-01T02:49:50;18.60;99.90
18456;DHT22;9357;49.900;8.208;2023-08-01T02:51:21;18.60;99.90
18456;DHT22;9357;49.900;8.208;2023-08-01T02:52:54;18.60;99.90
18456;DHT22;9357;49.900;8.208;2023-08-01T02:54:27;18.60;99.90
18456;DHT22;9357;49.900;8.208;2023-08-01T02:56:00;18.60;99.90
18456;DHT22;9357;49.900;8.208;2023-08-01T02:57:32;18.70;99.90
18456;DHT22;9357;49.900;8.208;2023-08-01T02:59:05;18.70;99.90
18456;DHT22;9357;49.900;8.208;2023-08-01T03:00:38;18.70;99.90
18456;DHT22;9357;49.900;8.208;2023-08-01T03:02:11;18.70;99.90
18456;DHT22;9357;49.900;8.208;2023-08-01T03:03:43;18.70;99.90
18456;DHT22;9357;49.900;8.208;2023-08-01T03:05:16;18.70;99.90
18456;DHT22;9357;49.900;8.208;2023-08-01T03:06:48;18.70;99.90
18456;DHT22;9357;49.900;8.208;2023-08-01T03:08:21;18.70;99.90
18456;DHT22;9357;49.900;8.208;2023-08-01T03:09:54;18.70;99.90
18456;DHT22;9357;49.900;8.208;2023-08-01T03:11:27;18.60;99.90
18456;DHT22;9357;49.900;8.208;2023-08-01T03:12:59;18.70;99.90
18456;DHT22;9357;49.900;8.208;2023-08-01T03:14:32;18.70;99.90
18456;DHT22;9357;49.900;8.208;2023-08-01T03:16:04;18.70;99.90
18456;DHT22;9357;49.900;8.208;2023-08-01T03:17:37;18.70;99.90
18456;DHT22;9357;49.900;8.208;2023-08-01T03:19:08;18.70;99.90
18456;DHT22;9357;49.900;8.208;2023-08-01T03:20:41;18.70;99.90
18456;DHT22;9357;49.900;8.208;2023-08-01T03:22:13;18.70;99.90
18456;DHT22;9357;49.900;8.208;2023-08-01T03:23:46;18.70;99.90
18456;DHT22;9357;49.900;8.208;2023-08-01T03:25:19;18.70;99.90
18456;DHT22;9357;49.900;8.208;2023-08-01T03:26:52;18.80;99.90
18456;DHT22;9357;49.900;8.208;2023-08-01T03:28:25;18.80;99.90
18456;DHT22;9357;49.900;8.208;2023-08-01T03:29:59;18.80;99.90
18456;DHT22;9357;49.900;8.208;2023-08-01T03:31:31;18.80;99.90
18456;DHT22;9357;49.900;8.208;2023-08-01T03:33:03;18.80;99.90
18456;DHT22;9357;49.900;8.208;2023-08-01T03:34:35;18.80;99.90
18456;DHT22;9357;49.900;8.208;2023-08-01T03:36:10;18.80;99.90
18456;DHT22;9357;49.900;8.208;2023-08-01T03:37:42;18.80;99.90
18456;DHT22;9357;49.900;8.208;2023-08-01T03:39:15;18.80;99.90
18456;DHT22;9357;49.900;8.208;2023-08-01T03:40:49;18.70;99.90
18456;DHT22;9357;49.900;8.208;2023-08-01T03:42:21;18.70;99.90
18456;DHT22;9357;49.900;8.208;2023-08-01T03:43:53;18.80;99.90
18456;DHT22;9357;49.900;8.208;2023-08-01T03:45:26;18.80;99.90
18456;DHT22;9357;49.900;8.208;2023-08-01T03:46:58;18.70;99.90
18456;DHT22;9357;49.900;8.208;2023-08-01T03:48:30;18.70;99.90
18456;DHT22;9357;49.900;8.208;2023-08-01T03:50:02;18.70;99.90
18456;DHT22;9357;49.900;8.208;2023-08-01T03:51:35;18.70;99.90
18456;DHT22;9357;49.900;8.208;2023-08-01T03:53:08;18.70;99.90
18456;DHT22;9357;49.900;8.208;2023-08-01T03:54:41;18.70;99.90
18456;DHT22;9357;49.900;8.208;2023-08-01T03:56:14;18.70;99.90
18456;DHT22;9357;49.900;8.208;2023-08-01T03:57:46;18.70;99.90
18456;DHT22;9357;49.900;8.208;2023-08-01T03:59:18;18.70;99.90
18456;DHT22;9357;49.900;8.208;2023-08-01T04:00:51;18.70;99.90
18456;DHT22;9357;49.900;8.208;2023-08-01T04:02:23;18.70;99.90
18456;DHT22;9357;49.900;8.208;2023-08-01T04:03:56;18.80;99.90
18456;DHT22;9357;49.900;8.208;2023-08-01T04:05:28;18.70;99.90
18456;DHT22;9357;49.900;8.208;2023-08-01T04:07:01;18.70;99.90
18456;DHT22;9357;49.900;8.208;2023-08-01T04:08:32;18.70;99.90
18456;DHT22;9357;49.900;8.208;2023-08-01T04:10:06;18.70;99.90
18456;DHT22;9357;49.900;8.208;2023-08-01T04:11:39;18.70;99.90
18456;DHT22;9357;49.900;8.208;2023-08-01T04:13:12;18.70;99.90
18456;DHT22;9357;49.900;8.208;2023-08-01T04:14:44;18.70;99.90
18456;DHT22;9357;49.900;8.208;2023-08-01T04:16:16;18.70;99.90
18456;DHT22;9357;49.900;8.208;2023-08-01T04:17:48;18.70;99.90
18456;DHT22;9357;49.900;8.208;2023-08-01T04:19:21;18.70;99.90
18456;DHT22;9357;49.900;8.208;2023-08-01T04:20:53;18.70;99.90
18456;DHT22;9357;49.900;8.208;2023-08-01T04:22:25;18.70;99.90
18456;DHT22;9357;49.900;8.208;2023-08-01T04:23:57;18.70;99.90
18456;DHT22;9357;49.900;8.208;2023-08-01T04:25:30;18.70;99.90
18456;DHT22;9357;49.900;8.208;2023-08-01T04:27:04;18.80;99.90
18456;DHT22;9357;49.900;8.208;2023-08-01T04:28:36;18.80;99.90
18456;DHT22;9357;49.900;8.208;2023-08-01T04:30:09;18.70;99.90
18456;DHT22;9357;49.900;8.208;2023-08-01T04:31:42;18.70;99.90
18456;DHT22;9357;49.900;8.208;2023-08-01T04:33:15;18.70;99.90
18456;DHT22;9357;49.900;8.208;2023-08-01T04:34:47;18.70;99.90
18456;DHT22;9357;49.900;8.208;2023-08-01T04:36:20;18.60;99.90
18456;DHT22;9357;49.900;8.208;2023-08-01T04:37:51;18.60;99.90
18456;DHT22;9357;49.900;8.208;2023-08-01T04:39:24;18.60;99.90
18456;DHT22;9357;49.900;8.208;2023-08-01T04:40:56;18.60;99.90
18456;DHT22;9357;49.900;8.208;2023-08-01T04:42:30;18.60;99.90
18456;DHT22;9357;49.900;8.208;2023-08-01T04:44:02;18.60;99.90
18456;DHT22;9357;49.900;8.208;2023-08-01T04:45:35;18.60;99.90
18456;DHT22;9357;49.900;8.208;2023-08-01T04:47:07;18.60;99.90
18456;DHT22;9357;49.900;8.208;2023-08-01T04:48:40;18.60;99.90
18456;DHT22;9357;49.900;8.208;2023-08-01T04:50:12;18.60;99.90
18456;DHT22;9357;49.900;8.208;2023-08-01T04:51:45;18.60;99.90
18456;DHT22;9357;49.900;8.208;2023-08-01T04:53:16;18.60;99.90
18456;DHT22;9357;49.900;8.208;2023-08-01T04:54:49;18.60;99.90
18456;DHT22;9357;49.900;8.208;2023-08-01T04:56:21;18.60;99.90
18456;DHT22;9357;49.900;8.208;2023-08-01T04:57:55;18.60;99.90
18456;DHT22;9357;49.900;8.208;2023-08-01T04:59:27;18.60;99.90
18456;DHT22;9357;49.900;8.208;2023-08-01T05:01:00;18.60;99.90
18456;DHT22;9357;49.900;8.208;2023-08-01T05:02:32;18.60;99.90
18456;DHT22;9357;49.900;8.208;2023-08-01T05:04:05;18.50;99.90
18456;DHT22;9357;49.900;8.208;2023-08-01T05:05:36;18.50;99.90
18456;DHT22;9357;49.900;8.208;2023-08-01T05:07:09;18.50;99.90
18456;DHT22;9357;49.900;8.208;2023-08-01T05:08:41;18.50;99.90
18456;DHT22;9357;49.900;8.208;2023-08-01T05:10:14;18.50;99.90
18456;DHT22;9357;49.900;8.208;2023-08-01T05:11:48;18.50;99.90
18456;DHT22;9357;49.900;8.208;2023-08-01T05:13:23;18.40;99.90
18456;DHT22;9357;49.900;8.208;2023-08-01T05:14:54;18.40;99.90
18456;DHT22;9357;49.900;8.208;2023-08-01T05:16:27;18.40;99.90
18456;DHT22;9357;49.900;8.208;2023-08-01T05:17:59;18.40;99.90
18456;DHT22;9357;49.900;8.208;2023-08-01T05:19:32;18.40;99.90
18456;DHT22;9357;49.900;8.208;2023-08-01T05:21:04;18.40;99.90
18456;DHT22;9357;49.900;8.208;2023-08-01T05:22:36;18.40;99.90
18456;DHT22;9357;49.900;8.208;2023-08-01T05:24:08;18.30;99.90
18456;DHT22;9357;49.900;8.208;2023-08-01T05:25:41;18.30;99.90
18456;DHT22;9357;49.900;8.208;2023-08-01T05:27:12;18.40;99.90
18456;DHT22;9357;49.900;8.208;2023-08-01T05:28:46;18.40;99.90
18456;DHT22;9357;49.900;8.208;2023-08-01T05:30:18;18.40;99.90
18456;DHT22;9357;49.900;8.208;2023-08-01T05:31:51;18.30;99.90
18456;DHT22;9357;49.900;8.208;2023-08-01T05:33:23;18.30;99.90
18456;DHT22;9357;49.900;8.208;2023-08-01T05:35:02;18.30;99.90
18456;DHT22;9357;49.900;8.208;2023-08-01T05:36:34;18.30;99.90
18456;DHT22;9357;49.900;8.208;2023-08-01T05:38:08;18.30;99.90
18456;DHT22;9357;49.900;8.208;2023-08-01T05:39:41;18.30;99.90
18456;DHT22;9357;49.900;8.208;2023-08-01T05:41:14;18.30;99.90
18456;DHT22;9357;49.900;8.208;2023-08-01T05:42:46;18.40;99.90
18456;DHT22;9357;49.900;8.208;2023-08-01T05:44:20;18.30;99.90
18456;DHT22;9357;49.900;8.208;2023-08-01T05:45:52;18.30;99.90
18456;DHT22;9357;49.900;8.208;2023-08-01T05:47:24;18.30;99.90
18456;DHT22;9357;49.900;8.208;2023-08-01T05:48:56;18.30;99.90
18456;DHT22;9357;49.900;8.208;2023-08-01T05:50:29;18.30;99.90
18456;DHT22;9357;49.900;8.208;2023-08-01T05:52:02;18.30;99.90
18456;DHT22;9357;49.900;8.208;2023-08-01T05:53:34;18.40;99.90
18456;DHT22;9357;49.900;8.208;2023-08-01T05:55:07;18.40;99.90
18456;DHT22;9357;49.900;8.208;2023-08-01T05:56:39;18.30;99.90
18456;DHT22;9357;49.900;8.208;2023-08-01T05:58:12;18.30;99.90
18456;DHT22;9357;49.900;8.208;2023-08-01T05:59:45;18.30;99.90
18456;DHT22;9357;49.900;8.208;2023-08-01T06:01:18;18.30;99.90
18456;DHT22;9357;49.900;8.208;2023-08-01T06:02:51;18.30;99.90
18456;DHT22;9357;49.900;8.208;2023-08-01T06:04:24;18.30;99.90
18456;DHT22;9357;49.900;8.208;2023-08-01T06:05:56;18.30;99.90
18456;DHT22;9357;49.900;8.208;2023-08-01T06:07:28;18.30;99.90
18456;DHT22;9357;49.900;8.208;2023-08-01T06:09:00;18.30;99.90
18456;DHT22;9357;49.900;8.208;2023-08-01T06:10:34;18.30;99.90
18456;DHT22;9357;49.900;8.208;2023-08-01T06:12:07;18.30;99.90
18456;DHT22;9357;49.900;8.208;2023-08-01T06:13:39;18.40;99.90
18456;DHT22;9357;49.900;8.208;2023-08-01T06:15:13;18.30;99.90
18456;DHT22;9357;49.900;8.208;2023-08-01T06:16:45;18.40;99.90
18456;DHT22;9357;49.900;8.208;2023-08-01T06:18:17;18.40;99.90
18456;DHT22;9357;49.900;8.208;2023-08-01T06:19:49;18.40;99.90
18456;DHT22;9357;49.900;8.208;2023-08-01T06:21:23;18.40;99.90
18456;DHT22;9357;49.900;8.208;2023-08-01T06:22:54;18.50;99.90
18456;DHT22;9357;49.900;8.208;2023-08-01T06:24:27;18.50;99.90
18456;DHT22;9357;49.900;8.208;2023-08-01T06:25:59;18.50;99.90
18456;DHT22;9357;49.900;8.208;2023-08-01T06:27:32;18.60;99.90
18456;DHT22;9357;49.900;8.208;2023-08-01T06:29:03;18.60;99.90
18456;DHT22;9357;49.900;8.208;2023-08-01T06:30:38;18.70;99.90
18456;DHT22;9357;49.900;8.208;2023-08-01T06:32:09;18.70;99.90
18456;DHT22;9357;49.900;8.208;2023-08-01T06:33:42;18.80;99.90
18456;DHT22;9357;49.900;8.208;2023-08-01T06:35:15;18.80;99.90
18456;DHT22;9357;49.900;8.208;2023-08-01T06:36:48;18.70;99.90
18456;DHT22;9357;49.900;8.208;2023-08-01T06:38:19;18.70;99.90
18456;DHT22;9357;49.900;8.208;2023-08-01T06:39:53;18.70;99.90
18456;DHT22;9357;49.900;8.208;2023-08-01T06:41:25;18.70;99.90
18456;DHT22;9357;49.900;8.208;2023-08-01T06:42:58;18.70;99.90
18456;DHT22;9357;49.900;8.208;2023-08-01T06:44:30;18.80;99.90
18456;DHT22;9357;49.900;8.208;2023-08-01T06:46:04;18.80;99.90
18456;DHT22;9357;49.900;8.208;2023-08-01T06:47:37;18.80;99.90
18456;DHT22;9357;49.900;8.208;2023-08-01T06:49:10;18.90;99.90
18456;DHT22;9357;49.900;8.208;2023-08-01T06:50:42;18.90;99.90
18456;DHT22;9357;49.900;8.208;2023-08-01T06:52:14;18.90;99.90
18456;DHT22;9357;49.900;8.208;2023-08-01T06:53:47;19.00;99.90
18456;DHT22;9357;49.900;8.208;2023-08-01T06:55:19;19.10;99.90
18456;DHT22;9357;49.900;8.208;2023-08-01T06:56:51;19.20;99.90
18456;DHT22;9357;49.900;8.208;2023-08-01T06:58:23;19.20;99.90
18456;DHT22;9357;49.900;8.208;2023-08-01T06:59:56;19.30;99.90
18456;DHT22;9357;49.900;8.208;2023-08-01T07:01:29;19.30;99.90
18456;DHT22;9357;49.900;8.208;2023-08-01T07:03:02;19.30;99.90
18456;DHT22;9357;49.900;8.208;2023-08-01T07:04:34;19.40;99.90
18456;DHT22;9357;49.900;8.208;2023-08-01T07:06:07;19.40;99.90
18456;DHT22;9357;49.900;8.208;2023-08-01T07:07:39;19.50;99.90
18456;DHT22;9357;49.900;8.208;2023-08-01T07:09:11;19.50;99.90
18456;DHT22;9357;49.900;8.208;2023-08-01T07:10:46;19.50;99.90
18456;DHT22;9357;49.900;8.208;2023-08-01T07:12:18;19.60;99.90
18456;DHT22;9357;49.900;8.208;2023-08-01T07:13:51;19.70;99.90
18456;DHT22;9357;49.900;8.208;2023-08-01T07:15:23;19.60;99.90
18456;DHT22;9357;49.900;8.208;2023-08-01T07:16:57;19.70;99.90
18456;DHT22;9357;49.900;8.208;2023-08-01T07:18:28;19.70;99.90
18456;DHT22;9357;49.900;8.208;2023-08-01T07:20:01;19.60;99.90
18456;DHT22;9357;49.900;8.208;2023-08-01T07:21:33;19.70;99.90
18456;DHT22;9357;49.900;8.208;2023-08-01T07:23:06;19.60;99.90
18456;DHT22;9357;49.900;8.208;2023-08-01T07:24:38;19.60;99.90
18456;DHT22;9357;49.900;8.208;2023-08-01T07:26:10;19.60;99.90
18456;DHT22;9357;49.900;8.208;2023-08-01T07:27:43;19.60;99.90
18456;DHT22;9357;49.900;8.208;2023-08-01T07:29:15;19.60;99.90
18456;DHT22;9357;49.900;8.208;2023-08-01T07:30:47;19.60;99.90
18456;DHT22;9357;49.900;8.208;2023-08-01T07:32:22;19.60;99.90
18456;DHT22;9357;49.900;8.208;2023-08-01T07:33:55;19.60;99.90
18456;DHT22;9357;49.900;8.208;2023-08-01T07:35:27;19.70;99.90
18456;DHT22;9357;49.900;8.208;2023-08-01T07:37:00;19.70;99.90
18456;DHT22;9357;49.900;8.208;2023-08-01T07:38:32;19.80;99.90
18456;DHT22;9357;49.900;8.208;2023-08-01T07:40:05;19.80;99.90
18456;DHT22;9357;49.900;8.208;2023-08-01T07:41:37;19.90;99.90
18456;DHT22;9357;49.900;8.208;2023-08-01T07:43:10;20.00;99.90
18456;DHT22;9357;49.900;8.208;2023-08-01T07:44:42;20.10;99.90
18456;DHT22;9357;49.900;8.208;2023-08-01T07:46:14;20.40;99.90
18456;DHT22;9357;49.900;8.208;2023-08-01T07:47:48;20.60;99.90
18456;DHT22;9357;49.900;8.208;2023-08-01T07:49:20;20.80;99.90
18456;DHT22;9357;49.900;8.208;2023-08-01T07:50:52;21.00;99.90
18456;DHT22;9357;49.900;8.208;2023-08-01T07:52:25;21.20;99.90
18456;DHT22;9357;49.900;8.208;2023-08-01T07:53:57;21.50;99.90
18456;DHT22;9357;49.900;8.208;2023-08-01T07:55:33;21.70;99.90
18456;DHT22;9357;49.900;8.208;2023-08-01T07:57:06;21.90;99.90
18456;DHT22;9357;49.900;8.208;2023-08-01T07:58:39;22.20;99.90
18456;DHT22;9357;49.900;8.208;2023-08-01T08:00:11;22.40;99.90
18456;DHT22;9357;49.900;8.208;2023-08-01T08:01:44;22.70;99.90
18456;DHT22;9357;49.900;8.208;2023-08-01T08:03:18;22.90;99.90
18456;DHT22;9357;49.900;8.208;2023-08-01T08:04:53;23.20;99.90
18456;DHT22;9357;49.900;8.208;2023-08-01T08:06:25;23.40;99.90
18456;DHT22;9357;49.900;8.208;2023-08-01T08:07:58;23.60;99.90
18456;DHT22;9357;49.900;8.208;2023-08-01T08:09:30;23.90;99.90
18456;DHT22;9357;49.900;8.208;2023-08-01T08:11:02;24.00;99.90
18456;DHT22;9357;49.900;8.208;2023-08-01T08:12:34;24.20;99.90
18456;DHT22;9357;49.900;8.208;2023-08-01T08:14:07;24.50;99.90
18456;DHT22;9357;49.900;8.208;2023-08-01T08:15:40;24.60;99.90
18456;DHT22;9357;49.900;8.208;2023-08-01T08:17:12;24.70;99.90
18456;DHT22;9357;49.900;8.208;2023-08-01T08:18:46;24.80;99.90
18456;DHT22;9357;49.900;8.208;2023-08-01T08:20:18;24.80;99.90
18456;DHT22;9357;49.900;8.208;2023-08-01T08:21:50;24.90;99.90
18456;DHT22;9357;49.900;8.208;2023-08-01T08:23:23;25.00;99.90
18456;DHT22;9357;49.900;8.208;2023-08-01T08:24:56;25.10;99.90
18456;DHT22;9357;49.900;8.208;2023-08-01T08:26:28;25.00;99.90
18456;DHT22;9357;49.900;8.208;2023-08-01T08:28:00;25.00;99.90
18456;DHT22;9357;49.900;8.208;2023-08-01T08:29:32;25.10;99.90
18456;DHT22;9357;49.900;8.208;2023-08-01T08:31:05;25.00;99.90
18456;DHT22;9357;49.900;8.208;2023-08-01T08:32:37;25.00;99.90
18456;DHT22;9357;49.900;8.208;2023-08-01T08:34:11;25.00;99.90
18456;DHT22;9357;49.900;8.208;2023-08-01T08:35:44;25.00;99.90
18456;DHT22;9357;49.900;8.208;2023-08-01T08:37:16;25.10;99.90
18456;DHT22;9357;49.900;8.208;2023-08-01T08:38:49;25.20;99.90
18456;DHT22;9357;49.900;8.208;2023-08-01T08:40:22;25.30;99.90
18456;DHT22;9357;49.900;8.208;2023-08-01T08:41:54;25.30;99.90
18456;DHT22;9357;49.900;8.208;2023-08-01T08:43:27;25.20;99.90
18456;DHT22;9357;49.900;8.208;2023-08-01T08:45:01;25.30;99.90
18456;DHT22;9357;49.900;8.208;2023-08-01T08:46:38;25.20;99.90
18456;DHT22;9357;49.900;8.208;2023-08-01T08:48:13;25.20;99.90
18456;DHT22;9357;49.900;8.208;2023-08-01T08:49:48;25.30;99.90
18456;DHT22;9357;49.900;8.208;2023-08-01T08:51:21;25.40;99.90
18456;DHT22;9357;49.900;8.208;2023-08-01T08:52:54;25.50;99.90
18456;DHT22;9357;49.900;8.208;2023-08-01T08:54:26;25.50;99.90
18456;DHT22;9357;49.900;8.208;2023-08-01T08:56:00;25.40;99.90
18456;DHT22;9357;49.900;8.208;2023-08-01T08:57:32;25.50;99.90
18456;DHT22;9357;49.900;8.208;2023-08-01T08:59:08;25.50;99.90
18456;DHT22;9357;49.900;8.208;2023-08-01T09:00:42;25.50;99.90
18456;DHT22;9357;49.900;8.208;2023-08-01T09:02:15;25.50;99.90
18456;DHT22;9357;49.900;8.208;2023-08-01T09:03:47;25.60;99.90
18456;DHT22;9357;49.900;8.208;2023-08-01T09:05:27;25.50;99.90
18456;DHT22;9357;49.900;8.208;2023-08-01T09:07:02;25.60;99.90
18456;DHT22;9357;49.900;8.208;2023-08-01T09:08:36;25.70;99.90
18456;DHT22;9357;49.900;8.208;2023-08-01T09:10:10;25.70;99.90
18456;DHT22;9357;49.900;8.208;2023-08-01T09:11:45;25.80;99.90
18456;DHT22;9357;49.900;8.208;2023-08-01T09:13:18;25.90;99.90
18456;DHT22;9357;49.900;8.208;2023-08-01T09:14:51;26.00;99.90
18456;DHT22;9357;49.900;8.208;2023-08-01T09:16:24;26.10;99.90
18456;DHT22;9357;49.900;8.208;2023-08-01T09:17:56;26.10;99.90
18456;DHT22;9357;49.900;8.208;2023-08-01T09:19:32;26.20;99.90
18456;DHT22;9357;49.900;8.208;2023-08-01T09:21:05;26.30;99.90
18456;DHT22;9357;49.900;8.208;2023-08-01T09:22:42;26.40;99.90
18456;DHT22;9357;49.900;8.208;2023-08-01T09:24:16;26.40;99.90
18456;DHT22;9357;49.900;8.208;2023-08-01T09:25:48;26.30;99.90
18456;DHT22;9357;49.900;8.208;2023-08-01T09:27:21;26.20;99.90
18456;DHT22;9357;49.900;8.208;2023-08-01T09:28:56;26.00;99.90
18456;DHT22;9357;49.900;8.208;2023-08-01T09:30:29;25.90;99.90
18456;DHT22;9357;49.900;8.208;2023-08-01T09:32:11;25.90;99.90
18456;DHT22;9357;49.900;8.208;2023-08-01T09:33:45;25.90;99.90
18456;DHT22;9357;49.900;8.208;2023-08-01T09:35:17;25.90;99.90
18456;DHT22;9357;49.900;8.208;2023-08-01T09:36:57;25.90;99.90
18456;DHT22;9357;49.900;8.208;2023-08-01T09:38:33;25.80;99.90
18456;DHT22;9357;49.900;8.208;2023-08-01T09:40:07;25.70;99.90
18456;DHT22;9357;49.900;8.208;2023-08-01T09:41:39;25.50;99.90
18456;DHT22;9357;49.900;8.208;2023-08-01T09:43:13;25.40;99.90
18456;DHT22;9357;49.900;8.208;2023-08-01T09:44:45;25.40;99.90
18456;DHT22;9357;49.900;8.208;2023-08-01T09:46:18;25.40;99.90
18456;DHT22;9357;49.900;8.208;2023-08-01T09:47:50;25.40;99.90
18456;DHT22;9357;49.900;8.208;2023-08-01T09:49:23;25.40;99.90
18456;DHT22;9357;49.900;8.208;2023-08-01T09:51:05;25.40;99.90
18456;DHT22;9357;49.900;8.208;2023-08-01T09:52:39;25.30;99.90
18456;DHT22;9357;49.900;8.208;2023-08-01T09:54:11;25.30;99.90
18456;DHT22;9357;49.900;8.208;2023-08-01T09:55:46;25.40;99.90